createdAt,value
2022-10-15T00:01:29.796Z,14.30
2022-10-15T00:03:57.988Z,14.30
2022-10-15T00:06:26.142Z,14.30
2022-10-15T00:08:54.182Z,14.30
2022-10-15T00:11:25.968Z,14.30
2022-10-15T00:13:55.375Z,14.30
2022-10-15T00:16:25.799Z,14.30
2022-10-15T00:18:56.587Z,14.30
2022-10-15T00:21:24.632Z,14.30
2022-10-15T00:23:52.811Z,14.30
2022-10-15T00:26:24.058Z,14.40
2022-10-15T00:28:53.928Z,14.30
2022-10-15T00:31:26.394Z,14.20
2022-10-15T00:33:56.151Z,14.20
2022-10-15T00:36:26.054Z,14.20
2022-10-15T00:38:54.719Z,14.20
2022-10-15T00:41:25.977Z,14.20
2022-10-15T00:43:56.090Z,14.20
2022-10-15T00:46:27.127Z,14.20
2022-10-15T00:48:59.039Z,14.20
2022-10-15T00:51:31.257Z,14.20
2022-10-15T00:54:01.097Z,14.20
2022-10-15T00:56:32.853Z,14.10
2022-10-15T00:59:02.073Z,14.20
2022-10-15T01:01:30.618Z,14.10
2022-10-15T01:03:59.981Z,14.00
2022-10-15T01:06:28.445Z,14.00
2022-10-15T01:08:56.509Z,14.00
2022-10-15T01:11:40.322Z,14.00
2022-10-15T01:14:23.869Z,13.90
2022-10-15T01:16:58.444Z,13.90
2022-10-15T01:19:42.694Z,13.90
2022-10-15T01:22:16.287Z,13.90
2022-10-15T01:25:09.655Z,13.90
2022-10-15T01:27:42.770Z,13.90
2022-10-15T01:30:24.750Z,13.90
2022-10-15T01:33:09.242Z,13.90
2022-10-15T01:35:46.482Z,13.90
2022-10-15T01:38:26.459Z,13.80
2022-10-15T01:40:58.752Z,13.80
2022-10-15T01:43:33.719Z,13.80
2022-10-15T01:46:29.030Z,13.80
2022-10-15T01:49:06.977Z,13.70
2022-10-15T01:51:37.990Z,13.80
2022-10-15T01:54:10.514Z,13.80
2022-10-15T01:56:39.274Z,13.70
2022-10-15T01:59:10.473Z,13.70
2022-10-15T02:04:22.081Z,13.60
2022-10-15T02:06:54.326Z,13.70
2022-10-15T02:09:30.726Z,13.60
2022-10-15T02:12:08.841Z,13.80
2022-10-15T02:14:48.878Z,13.70
2022-10-15T02:17:23.876Z,13.70
2022-10-15T02:19:56.158Z,13.60
2022-10-15T02:22:27.680Z,13.60
2022-10-15T02:24:58.472Z,13.60
2022-10-15T02:27:29.178Z,13.50
2022-10-15T02:29:58.622Z,13.60
2022-10-15T02:32:29.102Z,13.60
2022-10-15T02:34:57.603Z,13.60
2022-10-15T02:37:28.422Z,13.50
2022-10-15T02:39:56.780Z,13.50
2022-10-15T02:42:26.233Z,13.40
2022-10-15T02:44:54.769Z,13.40
2022-10-15T02:47:22.879Z,13.30
2022-10-15T02:49:52.351Z,13.40
2022-10-15T02:52:20.719Z,13.30
2022-10-15T02:54:49.145Z,13.30
2022-10-15T02:57:18.220Z,13.20
2022-10-15T02:59:47.164Z,13.20
2022-10-15T03:02:18.390Z,13.30
2022-10-15T03:04:48.035Z,13.20
2022-10-15T03:07:17.846Z,13.30
2022-10-15T03:09:46.159Z,13.30
2022-10-15T03:12:15.856Z,13.20
2022-10-15T03:14:43.973Z,13.20
2022-10-15T03:17:12.053Z,13.20
2022-10-15T03:19:40.871Z,13.20
2022-10-15T03:22:08.926Z,13.20
2022-10-15T03:24:46.427Z,13.30
2022-10-15T03:27:14.445Z,13.20
2022-10-15T03:29:42.485Z,13.30
2022-10-15T03:32:10.709Z,13.30
2022-10-15T03:34:39.119Z,13.20
2022-10-15T03:37:08.066Z,13.20
2022-10-15T03:39:37.110Z,13.20
2022-10-15T03:42:08.867Z,13.30
2022-10-15T03:44:41.628Z,13.20
2022-10-15T03:47:12.499Z,13.20
2022-10-15T03:49:46.733Z,13.20
2022-10-15T03:52:15.382Z,13.20
2022-10-15T03:54:44.473Z,13.20
2022-10-15T03:57:16.007Z,13.20
2022-10-15T03:59:47.997Z,13.20
2022-10-15T04:02:17.493Z,13.20
2022-10-15T04:04:45.678Z,13.30
2022-10-15T04:07:14.092Z,13.20
2022-10-15T04:09:42.416Z,13.20
2022-10-15T04:12:37.970Z,13.20
2022-10-15T04:15:09.558Z,13.30
2022-10-15T04:17:43.171Z,13.20
2022-10-15T04:20:12.376Z,13.20
2022-10-15T04:22:43.690Z,13.20
2022-10-15T04:25:11.762Z,13.10
2022-10-15T04:27:41.117Z,13.20
2022-10-15T04:30:13.740Z,13.20
2022-10-15T04:32:47.493Z,13.20
2022-10-15T04:35:15.595Z,13.20
2022-10-15T04:38:21.919Z,13.20
2022-10-15T04:41:03.510Z,13.20
2022-10-15T04:43:49.367Z,13.20
2022-10-15T04:46:17.492Z,13.20
2022-10-15T04:48:45.938Z,13.20
2022-10-15T04:51:17.257Z,13.20
2022-10-15T04:54:05.792Z,13.10
2022-10-15T04:56:34.102Z,13.20
2022-10-15T04:59:07.142Z,13.10
2022-10-15T05:01:40.575Z,13.20
2022-10-15T05:04:12.063Z,13.20
2022-10-15T05:06:41.417Z,13.20
2022-10-15T05:09:18.131Z,13.10
2022-10-15T05:11:52.528Z,13.20
2022-10-15T05:14:22.743Z,13.10
2022-10-15T05:17:06.349Z,13.20
2022-10-15T05:19:40.144Z,13.10
2022-10-15T05:22:11.691Z,13.10
2022-10-15T05:24:45.998Z,13.20
2022-10-15T05:27:26.247Z,13.10
2022-10-15T05:29:55.689Z,13.10
2022-10-15T05:32:27.579Z,13.10
2022-10-15T05:34:55.585Z,13.10
2022-10-15T05:37:24.644Z,13.10
2022-10-15T05:39:52.811Z,13.10
2022-10-15T05:42:20.833Z,13.10
2022-10-15T05:44:58.844Z,13.10
2022-10-15T05:47:27.089Z,13.10
2022-10-15T05:50:12.666Z,13.10
2022-10-15T05:52:45.230Z,13.10
2022-10-15T05:55:17.349Z,13.10
2022-10-15T05:57:45.339Z,13.10
2022-10-15T06:00:16.188Z,13.10
2022-10-15T06:02:51.656Z,13.10
2022-10-15T06:05:19.695Z,13.10
2022-10-15T06:07:47.682Z,13.10
2022-10-15T06:10:15.885Z,13.10
2022-10-15T06:12:44.351Z,13.20
2022-10-15T06:15:13.822Z,13.20
2022-10-15T06:17:41.838Z,13.20
2022-10-15T06:20:10.966Z,13.20
2022-10-15T06:22:39.005Z,13.20
2022-10-15T06:25:08.440Z,13.20
2022-10-15T06:27:36.600Z,13.20
2022-10-15T06:30:05.962Z,13.20
2022-10-15T06:32:35.582Z,13.10
2022-10-15T06:35:03.663Z,13.10
2022-10-15T06:37:31.771Z,13.10
2022-10-15T06:39:59.878Z,13.10
2022-10-15T06:42:27.868Z,13.10
2022-10-15T06:44:56.757Z,13.10
2022-10-15T06:47:25.022Z,13.10
2022-10-15T06:49:54.621Z,13.20
2022-10-15T06:52:23.769Z,13.10
2022-10-15T06:54:52.006Z,13.30
2022-10-15T06:57:25.542Z,13.30
2022-10-15T06:59:53.966Z,13.20
2022-10-15T07:02:22.266Z,13.20
2022-10-15T07:04:50.360Z,13.10
2022-10-15T07:07:23.034Z,13.20
2022-10-15T07:09:53.435Z,13.20
2022-10-15T07:12:22.403Z,13.20
2022-10-15T07:14:50.852Z,13.20
2022-10-15T07:17:18.830Z,13.20
2022-10-15T07:19:46.844Z,13.20
2022-10-15T07:22:14.842Z,13.20
2022-10-15T07:24:44.391Z,13.20
2022-10-15T07:27:19.547Z,13.20
2022-10-15T07:29:47.689Z,13.20
2022-10-15T07:32:15.681Z,13.20
2022-10-15T07:34:43.666Z,13.20
2022-10-15T07:37:11.634Z,13.30
2022-10-15T07:39:41.011Z,13.20
2022-10-15T07:44:44.036Z,13.30
2022-10-15T07:47:12.052Z,13.40
2022-10-15T07:49:40.058Z,13.40
2022-10-15T07:52:08.783Z,13.60
2022-10-15T07:54:37.392Z,13.80
2022-10-15T07:57:06.945Z,13.90
2022-10-15T07:59:36.357Z,13.90
2022-10-15T08:02:04.552Z,13.90
2022-10-15T08:04:34.580Z,13.90
2022-10-15T08:07:04.001Z,13.90
2022-10-15T08:09:33.663Z,13.90
2022-10-15T08:12:01.954Z,13.90
2022-10-15T08:14:29.954Z,14.00
2022-10-15T08:16:59.304Z,14.00
2022-10-15T08:19:27.278Z,14.00
2022-10-15T08:21:55.332Z,14.10
2022-10-15T08:24:23.309Z,14.20
2022-10-15T08:26:51.354Z,14.30
2022-10-15T08:29:19.359Z,14.40
2022-10-15T08:31:47.359Z,14.60
2022-10-15T08:34:17.039Z,14.70
2022-10-15T08:36:45.090Z,14.70
2022-10-15T08:39:13.139Z,14.70
2022-10-15T08:41:46.331Z,14.70
2022-10-15T08:44:22.858Z,14.80
2022-10-15T08:46:53.637Z,14.90
2022-10-15T08:49:34.926Z,15.00
2022-10-15T08:52:09.853Z,15.10
2022-10-15T08:54:38.139Z,15.20
2022-10-15T08:57:18.986Z,15.30
2022-10-15T08:59:53.934Z,15.50
2022-10-15T09:02:26.752Z,15.80
2022-10-15T09:05:03.502Z,16.10
2022-10-15T09:07:40.352Z,16.30
2022-10-15T09:10:17.183Z,16.50
2022-10-15T09:12:55.187Z,16.80
2022-10-15T09:15:27.870Z,17.00
2022-10-15T09:17:56.331Z,17.00
2022-10-15T09:20:33.942Z,17.10
2022-10-15T09:23:02.293Z,17.20
2022-10-15T09:25:35.997Z,17.30
2022-10-15T09:28:11.353Z,17.40
2022-10-15T09:30:46.142Z,17.40
2022-10-15T09:33:23.652Z,17.10
2022-10-15T09:35:57.663Z,17.30
2022-10-15T09:38:33.234Z,17.40
2022-10-15T09:41:16.532Z,17.50
2022-10-15T09:43:47.578Z,17.50
2022-10-15T09:46:15.603Z,17.70
2022-10-15T09:48:49.361Z,17.80
2022-10-15T09:51:25.312Z,17.60
2022-10-15T09:54:02.399Z,17.70
2022-10-15T09:56:36.983Z,17.70
2022-10-15T09:59:08.809Z,17.90
2022-10-15T10:01:37.738Z,18.00
2022-10-15T10:04:15.302Z,17.90
2022-10-15T10:06:51.704Z,17.80
2022-10-15T10:09:22.453Z,17.90
2022-10-15T10:11:52.882Z,18.00
2022-10-15T10:14:27.332Z,18.10
2022-10-15T10:17:17.131Z,18.20
2022-10-15T10:19:47.234Z,17.80
2022-10-15T10:22:18.986Z,17.80
2022-10-15T10:24:47.544Z,17.80
2022-10-15T10:27:22.465Z,17.60
2022-10-15T10:29:55.531Z,17.50
2022-10-15T10:32:28.150Z,17.50
2022-10-15T10:34:56.730Z,17.50
2022-10-15T10:37:27.403Z,17.50
2022-10-15T10:39:58.618Z,17.50
2022-10-15T10:42:32.626Z,17.60
2022-10-15T10:45:22.949Z,17.40
2022-10-15T10:47:51.163Z,17.30
2022-10-15T10:50:35.442Z,17.30
2022-10-15T10:53:23.594Z,17.30
2022-10-15T10:55:53.558Z,17.30
2022-10-15T10:58:30.064Z,17.40
2022-10-15T11:00:59.280Z,17.20
2022-10-15T11:03:33.630Z,17.40
2022-10-15T11:06:19.025Z,17.40
2022-10-15T11:08:58.948Z,17.60
2022-10-15T11:11:33.723Z,17.70
2022-10-15T11:14:17.176Z,17.50
2022-10-15T11:16:53.618Z,17.50
2022-10-15T11:22:48.407Z,18.10
2022-10-15T11:25:28.892Z,18.60
2022-10-15T11:28:17.176Z,18.90
2022-10-15T11:30:51.299Z,19.10
2022-10-15T11:33:46.081Z,19.10
2022-10-15T11:36:33.348Z,18.80
2022-10-15T11:39:23.745Z,18.60
2022-10-15T11:42:01.841Z,18.40
2022-10-15T11:44:40.553Z,18.50
2022-10-15T11:47:22.405Z,18.50
2022-10-15T11:50:02.822Z,18.50
2022-10-15T11:52:44.048Z,18.50
2022-10-15T11:55:17.098Z,18.40
2022-10-15T11:57:49.867Z,18.40
2022-10-15T12:00:31.011Z,18.40
2022-10-15T12:03:03.630Z,18.40
2022-10-15T12:05:36.823Z,18.40
2022-10-15T12:08:05.978Z,18.30
2022-10-15T12:10:53.377Z,18.40
2022-10-15T12:13:29.589Z,18.40
2022-10-15T12:16:07.871Z,18.30
2022-10-15T12:18:41.770Z,18.20
2022-10-15T12:21:32.066Z,18.30
2022-10-15T12:24:00.150Z,18.30
2022-10-15T12:26:32.122Z,18.30
2022-10-15T12:29:05.197Z,18.20
2022-10-15T12:31:49.197Z,18.30
2022-10-15T12:34:42.312Z,18.40
2022-10-15T12:37:18.522Z,18.10
2022-10-15T12:39:52.144Z,17.90
2022-10-15T12:42:26.924Z,17.70
2022-10-15T12:44:58.498Z,17.80
2022-10-15T12:47:48.854Z,17.90
2022-10-15T12:50:22.250Z,18.00
2022-10-15T12:53:01.867Z,18.00
2022-10-15T12:55:33.870Z,17.90
2022-10-15T12:58:07.674Z,17.80
2022-10-15T13:00:46.124Z,17.80
2022-10-15T13:03:35.406Z,17.80
2022-10-15T13:06:25.932Z,17.80
2022-10-15T13:08:56.733Z,17.70
2022-10-15T13:11:28.123Z,17.80
2022-10-15T13:14:00.454Z,17.70
2022-10-15T13:16:30.594Z,17.70
2022-10-15T13:19:00.282Z,17.70
2022-10-15T13:21:48.702Z,17.70
2022-10-15T13:24:20.124Z,17.60
2022-10-15T13:26:48.383Z,17.60
2022-10-15T13:29:20.378Z,17.70
2022-10-15T13:31:50.353Z,17.70
2022-10-15T13:34:28.744Z,17.70
2022-10-15T13:36:58.786Z,17.60
2022-10-15T13:39:31.991Z,17.60
2022-10-15T13:42:11.350Z,17.60
2022-10-15T13:44:39.357Z,17.60
2022-10-15T13:47:25.791Z,17.70
2022-10-15T13:50:22.261Z,17.70
2022-10-15T13:52:55.081Z,17.80
2022-10-15T13:55:25.576Z,17.80
2022-10-15T13:57:58.905Z,17.70
2022-10-15T14:00:30.060Z,17.60
2022-10-15T14:03:10.541Z,17.60
2022-10-15T14:05:38.542Z,17.60
2022-10-15T14:08:06.722Z,17.40
2022-10-15T14:10:34.742Z,17.50
2022-10-15T14:13:02.774Z,17.50
2022-10-15T14:15:44.931Z,17.50
2022-10-15T14:18:16.246Z,17.50
2022-10-15T14:20:46.084Z,17.50
2022-10-15T14:23:18.560Z,17.50
2022-10-15T14:25:46.643Z,17.50
2022-10-15T14:28:21.799Z,17.50
2022-10-15T14:30:49.987Z,17.40
2022-10-15T14:33:34.078Z,17.30
2022-10-15T14:36:06.425Z,17.40
2022-10-15T14:38:34.703Z,17.40
2022-10-15T14:41:07.601Z,17.40
2022-10-15T14:43:37.617Z,17.40
2022-10-15T14:46:08.061Z,17.30
2022-10-15T14:48:40.567Z,17.30
2022-10-15T14:51:15.623Z,17.30
2022-10-15T14:53:47.471Z,17.20
2022-10-15T14:56:19.961Z,17.20
2022-10-15T14:58:52.045Z,17.10
2022-10-15T15:01:21.624Z,17.00
2022-10-15T15:03:55.418Z,16.90
2022-10-15T15:06:23.505Z,17.00
2022-10-15T15:08:51.537Z,17.00
2022-10-15T15:11:21.978Z,17.10
2022-10-15T15:13:51.449Z,17.10
2022-10-15T15:16:20.372Z,17.10
2022-10-15T15:18:49.801Z,17.10
2022-10-15T15:21:21.097Z,17.00
2022-10-15T15:23:50.074Z,17.00
2022-10-15T15:26:18.077Z,17.10
2022-10-15T15:28:46.149Z,17.10
2022-10-15T15:31:18.304Z,17.00
2022-10-15T15:33:46.901Z,16.80
2022-10-15T15:36:23.320Z,16.80
2022-10-15T15:38:52.055Z,16.60
2022-10-15T15:41:22.078Z,16.50
2022-10-15T15:43:50.938Z,16.50
2022-10-15T15:46:19.549Z,16.40
2022-10-15T15:48:47.592Z,16.30
2022-10-15T15:51:21.792Z,16.30
2022-10-15T15:53:49.935Z,16.20
2022-10-15T15:56:17.946Z,16.20
2022-10-15T15:58:46.582Z,16.10
2022-10-15T16:01:14.651Z,16.10
2022-10-15T16:03:42.661Z,16.00
2022-10-15T16:06:10.740Z,16.00
2022-10-15T16:08:40.103Z,16.00
2022-10-15T16:11:08.234Z,16.00
2022-10-15T16:13:36.514Z,15.90
2022-10-15T16:16:04.619Z,15.90
2022-10-15T16:18:32.608Z,15.90
2022-10-15T16:21:00.767Z,15.90
2022-10-15T16:23:28.754Z,15.80
2022-10-15T16:25:58.422Z,15.90
2022-10-15T16:28:28.079Z,15.80
2022-10-15T16:30:56.597Z,15.80
2022-10-15T16:33:26.211Z,15.80
2022-10-15T16:35:56.297Z,15.80
2022-10-15T16:43:09.910Z,15.70
2022-10-15T16:45:38.023Z,15.70
2022-10-15T16:48:07.005Z,15.70
2022-10-15T16:50:35.025Z,15.60
2022-10-15T16:53:03.809Z,15.60
2022-10-15T16:55:32.287Z,15.60
2022-10-15T16:58:00.309Z,15.60
2022-10-15T17:00:29.786Z,15.60
2022-10-15T17:03:02.639Z,15.60
2022-10-15T17:05:32.526Z,15.50
2022-10-15T17:08:00.500Z,15.60
2022-10-15T17:10:28.498Z,15.60
2022-10-15T17:12:56.543Z,15.60
2022-10-15T17:15:25.402Z,15.60
2022-10-15T17:17:54.793Z,15.60
2022-10-15T17:20:22.803Z,15.50
2022-10-15T17:22:50.877Z,15.50
2022-10-15T17:25:19.722Z,15.50
2022-10-15T17:27:47.694Z,15.50
2022-10-15T17:30:15.770Z,15.50
2022-10-15T17:32:43.826Z,15.40
2022-10-15T17:35:13.142Z,15.50
2022-10-15T17:37:45.377Z,15.50
2022-10-15T17:40:20.354Z,15.50
2022-10-15T17:42:48.544Z,15.50
2022-10-15T17:45:17.211Z,15.50
2022-10-15T17:47:45.175Z,15.50
2022-10-15T17:50:14.587Z,15.50
2022-10-15T17:52:42.951Z,15.50
2022-10-15T17:55:11.145Z,15.50
2022-10-15T17:57:39.189Z,15.50
2022-10-15T18:00:08.401Z,15.50
2022-10-15T18:02:40.368Z,15.50
2022-10-15T18:05:08.749Z,15.50
2022-10-15T18:07:39.793Z,15.50
2022-10-15T18:10:09.230Z,15.60
2022-10-15T18:12:37.414Z,15.60
2022-10-15T18:15:06.036Z,15.50
2022-10-15T18:17:34.102Z,15.60
2022-10-15T18:20:02.778Z,15.50
2022-10-15T18:22:31.166Z,15.50
2022-10-15T18:25:00.513Z,15.50
2022-10-15T18:27:28.781Z,15.50
2022-10-15T18:29:56.878Z,15.50
2022-10-15T18:32:24.907Z,15.50
2022-10-15T18:34:52.878Z,15.40
2022-10-15T18:37:20.986Z,15.40
2022-10-15T18:39:48.990Z,15.40
2022-10-15T18:42:18.339Z,15.30
2022-10-15T18:44:46.499Z,15.30
2022-10-15T18:47:14.495Z,15.30
2022-10-15T18:49:44.170Z,15.30
2022-10-15T18:52:21.563Z,15.20
2022-10-15T18:55:00.223Z,15.20
2022-10-15T18:57:31.621Z,15.20
2022-10-15T18:59:59.571Z,15.10
2022-10-15T19:02:28.049Z,15.10
2022-10-15T19:04:56.171Z,15.20
2022-10-15T19:07:24.303Z,15.20
2022-10-15T19:09:52.314Z,15.20
2022-10-15T19:12:25.751Z,15.20
2022-10-15T19:14:55.206Z,15.10
2022-10-15T19:17:23.203Z,15.10
2022-10-15T19:19:51.217Z,15.10
2022-10-15T19:22:19.554Z,15.10
2022-10-15T19:24:47.553Z,15.20
2022-10-15T19:27:15.546Z,15.20
2022-10-15T19:29:43.537Z,15.20
2022-10-15T19:32:12.858Z,15.20
2022-10-15T19:34:40.867Z,15.30
2022-10-15T19:37:08.886Z,15.30
2022-10-15T19:39:48.838Z,15.40
2022-10-15T19:42:17.163Z,15.40
2022-10-15T19:44:45.338Z,15.40
2022-10-15T19:47:20.355Z,15.40
2022-10-15T19:49:50.481Z,15.40
2022-10-15T19:52:18.557Z,15.40
2022-10-15T19:54:49.613Z,15.40
2022-10-15T19:57:17.623Z,15.40
2022-10-15T19:59:45.633Z,15.40
2022-10-15T20:02:13.927Z,15.30
2022-10-15T20:04:43.258Z,15.30
2022-10-15T20:07:11.503Z,15.30
2022-10-15T20:09:39.577Z,15.30
2022-10-15T20:12:07.633Z,15.20
2022-10-15T20:14:35.882Z,15.20
2022-10-15T20:17:04.865Z,15.20
2022-10-15T20:19:32.946Z,15.10
2022-10-15T20:22:02.419Z,15.10
2022-10-15T20:24:30.515Z,15.10
2022-10-15T20:26:58.529Z,15.00
2022-10-15T20:29:26.650Z,15.00
2022-10-15T20:32:02.028Z,15.00
2022-10-15T20:34:39.181Z,15.00
2022-10-15T20:37:08.497Z,15.00
2022-10-15T20:39:36.533Z,14.90
2022-10-15T20:42:04.650Z,14.90
2022-10-15T20:44:32.637Z,14.80
2022-10-15T20:47:05.283Z,14.80
2022-10-15T20:49:36.919Z,14.80
2022-10-15T20:52:05.845Z,14.80
2022-10-15T20:54:35.498Z,14.90
2022-10-15T20:57:03.944Z,14.80
2022-10-15T20:59:31.919Z,14.80
2022-10-15T21:01:59.925Z,14.90
2022-10-15T21:04:27.938Z,14.80
2022-10-15T21:06:55.915Z,14.70
2022-10-15T21:09:24.141Z,14.70
2022-10-15T21:11:53.501Z,14.70
2022-10-15T21:14:21.588Z,14.70
2022-10-15T21:16:49.585Z,14.60
2022-10-15T21:19:17.626Z,14.60
2022-10-15T21:21:45.599Z,14.50
2022-10-15T21:24:14.742Z,14.50
2022-10-15T21:26:42.730Z,14.50
2022-10-15T21:29:16.264Z,14.40
2022-10-15T21:31:44.349Z,14.40
2022-10-15T21:34:12.365Z,14.40
2022-10-15T21:36:41.637Z,14.40
2022-10-15T21:39:10.746Z,14.40
2022-10-15T21:41:39.979Z,14.30
2022-10-15T21:44:09.116Z,14.30
2022-10-15T21:46:41.146Z,14.30
2022-10-15T21:49:09.345Z,14.20
2022-10-15T21:51:38.376Z,14.30
2022-10-15T21:54:08.060Z,14.20
2022-10-15T21:56:36.289Z,14.20
2022-10-15T21:59:04.677Z,14.20
2022-10-15T22:01:34.748Z,14.20
2022-10-15T22:04:06.639Z,14.10
2022-10-15T22:06:35.007Z,14.20
2022-10-15T22:09:04.185Z,14.20
2022-10-15T22:11:34.314Z,14.10
2022-10-15T22:14:04.330Z,14.10
2022-10-15T22:16:35.589Z,14.10
2022-10-15T22:19:05.433Z,14.10
2022-10-15T22:21:37.802Z,14.10
2022-10-15T22:24:09.281Z,14.10
2022-10-15T22:26:39.945Z,14.10
2022-10-15T22:29:09.575Z,14.00
2022-10-15T22:31:37.665Z,14.00
2022-10-15T22:34:07.013Z,14.00
2022-10-15T22:36:35.396Z,14.00
2022-10-15T22:39:05.886Z,14.00
2022-10-15T22:41:35.865Z,14.00
2022-10-15T22:44:04.522Z,14.00
2022-10-15T22:46:34.562Z,13.90
2022-10-15T22:49:02.815Z,14.00
2022-10-15T22:51:32.410Z,14.00
2022-10-15T22:54:01.330Z,13.90
2022-10-15T22:56:30.135Z,13.80
2022-10-15T22:58:59.833Z,13.80
2022-10-15T23:01:29.246Z,13.90
2022-10-15T23:03:58.999Z,13.80
2022-10-15T23:06:27.327Z,13.80
2022-10-15T23:08:58.573Z,13.80
2022-10-15T23:11:28.888Z,13.70
2022-10-15T23:13:58.409Z,13.70
2022-10-15T23:16:28.168Z,13.70
2022-10-15T23:18:57.834Z,13.70
2022-10-15T23:21:29.704Z,13.70
2022-10-15T23:23:59.505Z,13.70
2022-10-15T23:29:02.513Z,13.70
2022-10-15T23:31:32.340Z,13.70
2022-10-15T23:34:00.833Z,13.70
2022-10-15T23:36:30.161Z,13.70
2022-10-15T23:39:01.849Z,13.70
2022-10-15T23:41:30.557Z,13.60
2022-10-15T23:43:58.598Z,13.60
2022-10-15T23:46:27.235Z,13.60
2022-10-15T23:48:55.246Z,13.70
2022-10-15T23:51:25.137Z,13.60
2022-10-15T23:53:53.969Z,13.60
2022-10-15T23:56:24.094Z,13.60
2022-10-15T23:58:55.757Z,13.60
